Weather at Randy Champe-Gary Howe Memorial Heliport

Public forecast

Using degrees Fahrenheit for public forecast. Weather courtesy of forecast.io.

Closest aviation weather report (METAR) to Randy Champe-Gary Howe Memorial Heliport

Closest report is Jack Northrop Field Hawthorne Municipal Airport, 4.0 nm (7.5 km) SW. Retrieved 2021/01/27 02:53 UTC (29 minutes ago):

KHHR 270253Z AUTO 00000KT 10SM FEW120 11/M01 A3009 RMK AO2 RAE0159 SLP190 P0000 60000 T01061006 53014

Closest aviation forecast (TAF) to Randy Champe-Gary Howe Memorial Heliport

Closest forecast is Los Angeles International Airport, 6.7 nm (12.4 km) WSW. Retrieved 2021-01-27 00:33 UTC (3 hours ago):

TAF KLAX 262330Z 2700/2806 22006KT P6SM SCT200 FM270300 22006KT P6SM BKN150 FM270700 14008KT P6SM SCT050 OVC090 FM271100 11006KT P6SM OVC040 FM271400 11010KT P6SM OVC040 FM271700 13010KT P6SM VCSH OVC040 FM271900 17008KT P6SM VCSH OVC040